createdAt,value
2023-04-01T00:00:03.109Z,3.00
2023-04-01T00:02:30.054Z,2.70
2023-04-01T00:04:57.360Z,2.90
2023-04-01T00:07:24.259Z,2.67
2023-04-01T00:09:51.931Z,1.30
2023-04-01T00:12:18.806Z,1.80
2023-04-01T00:14:46.109Z,3.05
2023-04-01T00:17:13.136Z,3.55
2023-04-01T00:19:40.407Z,4.03
2023-04-01T00:22:07.419Z,4.03
2023-04-01T00:24:34.429Z,3.65
2023-04-01T00:27:01.376Z,4.53
2023-04-01T00:29:30.450Z,4.32
2023-04-01T00:31:59.896Z,4.07
2023-04-01T00:34:27.412Z,4.32
2023-04-01T00:36:55.261Z,3.08
2023-04-01T00:39:22.806Z,2.40
2023-04-01T00:41:50.456Z,3.20
2023-04-01T00:44:28.483Z,3.30
2023-04-01T00:46:55.785Z,3.25
2023-04-01T00:49:30.995Z,3.28
2023-04-01T00:52:01.316Z,4.43
2023-04-01T00:54:31.172Z,2.83
2023-04-01T00:59:38.397Z,3.35
2023-04-01T01:02:08.448Z,5.22
2023-04-01T01:04:36.940Z,7.37
2023-04-01T01:07:06.881Z,5.62
2023-04-01T01:09:55.642Z,6.30
2023-04-01T01:12:27.112Z,6.12
2023-04-01T01:14:53.948Z,6.97
2023-04-01T01:17:28.295Z,5.07
2023-04-01T01:20:07.717Z,4.22
2023-04-01T01:23:06.539Z,5.75
2023-04-01T01:25:49.452Z,4.10
2023-04-01T01:28:37.757Z,5.47
2023-04-01T01:31:38.131Z,4.40
2023-04-01T01:34:14.183Z,6.60
2023-04-01T01:36:46.295Z,6.35
2023-04-01T01:39:15.107Z,3.70
2023-04-01T01:41:46.262Z,2.83
2023-04-01T01:44:16.517Z,2.70
2023-04-01T01:46:46.003Z,5.07
2023-04-01T01:49:14.913Z,5.45
2023-04-01T01:51:44.285Z,5.53
2023-04-01T01:54:15.744Z,5.50
2023-04-01T01:56:46.380Z,3.95
2023-04-01T01:59:15.791Z,2.83
2023-04-01T02:01:47.878Z,3.15
2023-04-01T02:04:16.828Z,3.58
2023-04-01T02:06:53.673Z,3.15
2023-04-01T02:09:21.644Z,2.83
2023-04-01T02:12:05.217Z,2.70
2023-04-01T02:14:51.208Z,3.20
2023-04-01T02:17:21.724Z,4.35
2023-04-01T02:19:57.142Z,4.50
2023-04-01T02:22:33.420Z,4.70
2023-04-01T02:25:05.928Z,3.85
2023-04-01T02:27:33.270Z,3.65
2023-04-01T02:30:00.481Z,3.33
2023-04-01T02:32:30.899Z,2.87
2023-04-01T02:34:58.321Z,2.42
2023-04-01T02:37:25.299Z,3.10
2023-04-01T02:39:52.243Z,2.87
2023-04-01T02:42:19.206Z,2.40
2023-04-01T02:44:46.290Z,2.50
2023-04-01T02:47:13.280Z,2.40
2023-04-01T02:49:40.241Z,2.00
2023-04-01T02:52:07.172Z,2.58
2023-04-01T02:54:34.064Z,5.28
2023-04-01T02:57:01.004Z,2.75
2023-04-01T02:59:27.908Z,2.40
2023-04-01T03:01:54.897Z,2.78
2023-04-01T03:04:21.954Z,2.85
2023-04-01T03:06:48.773Z,2.83
2023-04-01T03:09:15.733Z,2.47
2023-04-01T03:11:42.804Z,2.15
2023-04-01T03:14:09.755Z,2.25
2023-04-01T03:16:36.699Z,2.45
2023-04-01T03:19:03.645Z,2.67
2023-04-01T03:21:30.770Z,2.20
2023-04-01T03:23:57.872Z,2.80
2023-04-01T03:26:24.728Z,2.30
2023-04-01T03:28:51.652Z,2.60
2023-04-01T03:31:18.742Z,2.45
2023-04-01T03:33:46.267Z,2.85
2023-04-01T03:36:14.006Z,2.05
2023-04-01T03:38:45.215Z,3.00
2023-04-01T03:41:16.937Z,2.10
2023-04-01T03:43:43.935Z,1.40
2023-04-01T03:46:11.077Z,1.75
2023-04-01T03:48:38.141Z,2.35
2023-04-01T03:51:09.118Z,2.00
2023-04-01T03:53:36.100Z,2.00
2023-04-01T03:56:07.447Z,2.00
2023-04-01T03:58:34.616Z,1.85
2023-04-01T04:01:01.641Z,1.80
2023-04-01T04:03:29.471Z,1.67
2023-04-01T04:05:57.559Z,2.33
2023-04-01T04:08:24.516Z,1.77
2023-04-01T04:10:57.070Z,1.48
2023-04-01T04:13:23.959Z,1.50
2023-04-01T04:15:51.039Z,2.12
2023-04-01T04:18:17.960Z,2.22
2023-04-01T04:20:48.377Z,1.65
2023-04-01T04:23:15.596Z,10.30
2023-04-01T04:25:42.691Z,8.35
2023-04-01T04:28:09.640Z,6.37
2023-04-01T04:30:36.612Z,2.92
2023-04-01T04:33:03.544Z,5.12
2023-04-01T04:35:30.950Z,5.68
2023-04-01T04:37:58.133Z,2.08
2023-04-01T04:40:25.129Z,3.85
2023-04-01T04:42:52.053Z,3.62
2023-04-01T04:45:19.004Z,3.92
2023-04-01T04:47:46.000Z,3.33
2023-04-01T04:50:12.991Z,7.75
2023-04-01T04:52:39.904Z,4.85
2023-04-01T04:55:07.255Z,3.15
2023-04-01T04:57:34.198Z,3.20
2023-04-01T05:00:01.217Z,4.35
2023-04-01T05:02:28.298Z,4.07
2023-04-01T05:04:55.863Z,3.87
2023-04-01T05:07:22.741Z,3.67
2023-04-01T05:09:49.718Z,5.25
2023-04-01T05:12:16.813Z,14.40
2023-04-01T05:14:43.791Z,17.55
2023-04-01T05:17:13.543Z,13.30
2023-04-01T05:19:40.782Z,12.57
2023-04-01T05:22:07.890Z,16.52
2023-04-01T05:24:34.985Z,13.62
2023-04-01T05:27:02.259Z,9.13
2023-04-01T05:29:29.190Z,9.50
2023-04-01T05:31:56.119Z,7.90
2023-04-01T05:34:23.071Z,7.55
2023-04-01T05:36:50.030Z,16.62
2023-04-01T05:39:16.995Z,10.95
2023-04-01T05:41:43.961Z,7.75
2023-04-01T05:44:13.819Z,10.70
2023-04-01T05:49:07.891Z,12.45
2023-04-01T05:51:34.838Z,7.60
2023-04-01T05:54:01.786Z,2.92
2023-04-01T05:56:28.625Z,2.25
2023-04-01T05:58:55.752Z,2.15
2023-04-01T06:01:22.931Z,3.53
2023-04-01T06:03:50.037Z,2.17
2023-04-01T06:06:29.744Z,2.08
2023-04-01T06:08:59.960Z,1.92
2023-04-01T06:12:08.185Z,2.03
2023-04-01T06:14:57.161Z,2.17
2023-04-01T06:17:49.259Z,8.07
2023-04-01T06:20:36.519Z,3.92
2023-04-01T06:23:15.960Z,2.40
2023-04-01T06:26:10.660Z,2.75
2023-04-01T06:28:56.232Z,2.40
2023-04-01T06:32:00.084Z,3.08
2023-04-01T06:34:36.015Z,2.78
2023-04-01T06:37:40.478Z,2.75
2023-04-01T06:40:26.016Z,5.00
2023-04-01T06:43:04.402Z,3.62
2023-04-01T06:45:37.380Z,3.08
2023-04-01T06:48:07.359Z,3.78
2023-04-01T06:50:53.864Z,3.42
2023-04-01T06:53:47.079Z,3.70
2023-04-01T06:56:22.016Z,4.50
2023-04-01T06:59:03.548Z,3.92
2023-04-01T07:01:37.029Z,4.05
2023-04-01T07:04:12.635Z,2.75
2023-04-01T07:07:01.622Z,3.60
2023-04-01T07:09:56.834Z,2.87
2023-04-01T07:12:33.506Z,2.28
2023-04-01T07:15:05.141Z,2.65
2023-04-01T07:17:36.764Z,2.17
2023-04-01T07:20:22.220Z,2.65
2023-04-01T07:22:52.742Z,1.80
2023-04-01T07:25:19.670Z,2.30
2023-04-01T07:27:47.634Z,2.08
2023-04-01T07:30:19.384Z,2.10
2023-04-01T07:33:00.764Z,2.10
2023-04-01T07:35:32.341Z,2.22
2023-04-01T07:38:19.348Z,2.15
2023-04-01T07:40:57.320Z,1.40
2023-04-01T07:43:44.753Z,1.70
2023-04-01T07:46:31.899Z,1.40
2023-04-01T07:49:01.715Z,1.50
2023-04-01T07:54:25.803Z,2.00
2023-04-01T07:56:52.705Z,2.33
2023-04-01T07:59:44.199Z,2.03
2023-04-01T08:02:40.925Z,2.28
2023-04-01T08:05:07.839Z,1.40
2023-04-01T08:07:51.660Z,2.12
2023-04-01T08:10:53.663Z,2.33
2023-04-01T08:13:50.501Z,3.55
2023-04-01T08:16:26.443Z,2.80
2023-04-01T08:19:11.502Z,3.60
2023-04-01T08:21:52.382Z,2.72
2023-04-01T08:24:44.450Z,3.00
2023-04-01T08:27:24.888Z,3.28
2023-04-01T08:30:02.171Z,3.22
2023-04-01T08:32:38.424Z,3.95
2023-04-01T08:35:19.425Z,3.65
2023-04-01T08:37:47.017Z,3.33
2023-04-01T08:40:32.379Z,3.08
2023-04-01T08:42:59.375Z,3.22
2023-04-01T08:45:32.566Z,3.58
2023-04-01T08:48:26.124Z,3.28
2023-04-01T08:50:52.981Z,3.53
2023-04-01T08:53:31.735Z,3.42
2023-04-01T08:56:19.451Z,2.20
2023-04-01T08:59:24.603Z,2.28
2023-04-01T09:02:16.998Z,1.62
2023-04-01T09:05:17.681Z,2.72
2023-04-01T09:07:52.943Z,1.58
2023-04-01T09:10:28.889Z,1.30
2023-04-01T09:13:42.868Z,1.42
2023-04-01T09:16:18.244Z,1.50
2023-04-01T09:19:18.318Z,1.33
2023-04-01T09:22:07.177Z,0.93
2023-04-01T09:25:11.764Z,1.52
2023-04-01T09:27:58.979Z,1.40
2023-04-01T09:30:43.948Z,1.12
2023-04-01T09:33:40.002Z,0.77
2023-04-01T09:36:18.729Z,0.82
2023-04-01T09:39:24.036Z,0.97
2023-04-01T09:42:04.510Z,0.70
2023-04-01T09:44:52.114Z,0.95
2023-04-01T09:47:47.115Z,0.90
2023-04-01T09:50:34.297Z,0.93
2023-04-01T09:53:28.909Z,0.80
2023-04-01T09:56:14.134Z,1.77
2023-04-01T09:58:55.975Z,1.60
2023-04-01T10:01:58.913Z,0.70
2023-04-01T10:04:25.745Z,0.95
2023-04-01T10:07:40.642Z,1.12
2023-04-01T10:10:48.058Z,0.62
2023-04-01T10:13:18.025Z,0.50
2023-04-01T10:16:15.610Z,1.48
2023-04-01T10:19:12.965Z,1.48
2023-04-01T10:22:03.544Z,1.85
2023-04-01T10:25:07.187Z,0.70
2023-04-01T10:28:11.842Z,0.75
2023-04-01T10:31:23.644Z,0.40
2023-04-01T10:34:21.184Z,0.40
2023-04-01T10:36:55.235Z,0.50
2023-04-01T10:39:40.620Z,0.40
2023-04-01T10:42:24.777Z,0.73
2023-04-01T10:45:26.153Z,0.52
2023-04-01T10:48:18.680Z,0.73
2023-04-01T10:51:12.324Z,0.88
2023-04-01T10:53:59.677Z,0.80
2023-04-01T10:56:41.557Z,0.57
2023-04-01T10:59:14.490Z,0.80
2023-04-01T11:02:11.228Z,0.62
2023-04-01T11:05:08.906Z,0.70
2023-04-01T11:08:06.433Z,1.45
2023-04-01T11:11:19.779Z,1.10
2023-04-01T11:14:08.801Z,1.10
2023-04-01T11:16:57.212Z,0.93
2023-04-01T11:19:51.781Z,1.45
2023-04-01T11:22:53.073Z,1.10
2023-04-01T11:25:37.409Z,0.60
2023-04-01T11:28:24.783Z,0.60
2023-04-01T11:31:20.645Z,2.35
2023-04-01T11:33:59.094Z,0.75
2023-04-01T11:36:37.974Z,0.57
2023-04-01T11:39:22.958Z,0.50
2023-04-01T11:42:21.056Z,0.62
2023-04-01T11:45:02.123Z,0.70
2023-04-01T11:48:13.481Z,0.80
2023-04-01T11:51:09.161Z,1.08
2023-04-01T11:53:36.028Z,2.00
2023-04-01T11:56:09.187Z,2.22
2023-04-01T11:58:36.128Z,1.00
2023-04-01T12:01:34.490Z,1.37
2023-04-01T12:04:23.337Z,1.50
2023-04-01T12:06:56.490Z,1.15
2023-04-01T12:09:26.349Z,1.80
2023-04-01T12:12:12.254Z,1.60
2023-04-01T12:15:24.512Z,2.50
2023-04-01T12:17:57.453Z,0.88
2023-04-01T12:20:39.597Z,2.62
2023-04-01T12:23:20.778Z,0.80
2023-04-01T12:25:59.633Z,0.93
2023-04-01T12:29:08.583Z,0.80
2023-04-01T12:31:52.736Z,1.05
2023-04-01T12:34:32.256Z,12.43
2023-04-01T12:37:19.239Z,7.47
2023-04-01T12:39:53.140Z,2.65
2023-04-01T12:42:53.693Z,1.50
2023-04-01T12:45:31.795Z,0.90
2023-04-01T12:48:40.293Z,0.40
2023-04-01T12:51:28.141Z,0.57
2023-04-01T12:54:13.228Z,0.70
2023-04-01T12:56:40.084Z,2.20
2023-04-01T12:59:31.991Z,0.88
2023-04-01T13:02:29.719Z,0.85
2023-04-01T13:05:23.180Z,1.10
2023-04-01T13:08:03.574Z,3.60
2023-04-01T13:10:33.771Z,2.20
2023-04-01T13:13:41.101Z,2.50
2023-04-01T13:16:23.233Z,0.55
2023-04-01T13:19:14.626Z,0.45
2023-04-01T13:22:09.092Z,1.20
2023-04-01T13:24:42.596Z,0.60
2023-04-01T13:27:47.363Z,3.17
2023-04-01T13:30:46.275Z,1.42
2023-04-01T13:33:39.688Z,1.33
2023-04-01T13:36:19.527Z,0.47
2023-04-01T13:38:56.641Z,0.68
2023-04-01T13:41:39.472Z,0.55
2023-04-01T13:44:24.357Z,1.02
2023-04-01T13:47:09.399Z,1.45
2023-04-01T13:50:11.421Z,1.45
2023-04-01T13:52:47.272Z,3.50
2023-04-01T13:55:33.127Z,3.10
2023-04-01T13:58:15.294Z,1.60
2023-04-01T14:01:06.894Z,3.92
2023-04-01T14:04:06.128Z,3.70
2023-04-01T14:06:50.697Z,4.90
2023-04-01T14:09:53.062Z,1.60
2023-04-01T14:12:30.148Z,0.82
2023-04-01T14:15:24.838Z,0.30
2023-04-01T14:17:54.641Z,1.83
2023-04-01T14:20:24.537Z,1.00
2023-04-01T14:23:16.398Z,1.15
2023-04-01T14:25:43.325Z,1.20
2023-04-01T14:28:16.247Z,1.27
2023-04-01T14:31:01.783Z,1.45
2023-04-01T14:33:48.318Z,0.30
2023-04-01T14:36:43.181Z,0.82
2023-04-01T14:39:31.550Z,0.47
2023-04-01T14:42:22.408Z,0.62
2023-04-01T14:44:56.707Z,0.50
2023-04-01T14:48:01.913Z,1.12
2023-04-01T14:50:41.424Z,0.73
2023-04-01T14:53:08.395Z,0.50
2023-04-01T14:55:44.504Z,0.50
2023-04-01T14:58:15.741Z,0.45
2023-04-01T15:00:53.577Z,0.28
2023-04-01T15:03:28.320Z,0.60
2023-04-01T15:06:13.454Z,0.37
2023-04-01T15:08:59.132Z,0.57
2023-04-01T15:11:35.009Z,0.40
2023-04-01T15:14:30.607Z,0.15
2023-04-01T15:17:08.522Z,0.20
2023-04-01T15:19:57.393Z,0.43
2023-04-01T15:22:32.085Z,0.80
2023-04-01T15:25:27.235Z,0.40
2023-04-01T15:27:57.130Z,0.20
2023-04-01T15:30:37.036Z,0.30
2023-04-01T15:33:13.225Z,0.40
2023-04-01T15:36:07.792Z,0.45
2023-04-01T15:38:39.952Z,0.30
2023-04-01T15:41:27.173Z,0.62
2023-04-01T15:43:54.135Z,0.20
2023-04-01T15:46:33.010Z,0.20
2023-04-01T15:49:32.808Z,0.25
2023-04-01T15:52:26.304Z,0.40
2023-04-01T15:55:13.559Z,0.32
2023-04-01T15:57:47.241Z,0.50
2023-04-01T16:00:58.417Z,0.57
2023-04-01T16:03:34.450Z,2.03
2023-04-01T16:06:01.382Z,2.25
2023-04-01T16:08:47.449Z,2.33
2023-04-01T16:11:53.119Z,1.62
2023-04-01T16:14:40.239Z,1.87
2023-04-01T16:17:28.719Z,1.55
2023-04-01T16:20:11.315Z,23.80
2023-04-01T16:22:51.670Z,18.95
2023-04-01T16:25:43.083Z,8.82
2023-04-01T16:28:35.601Z,9.68
2023-04-01T16:31:14.462Z,7.75
2023-04-01T16:34:09.287Z,3.73
2023-04-01T16:36:55.598Z,3.17
2023-04-01T16:39:58.440Z,1.67
2023-04-01T16:42:47.811Z,2.60
2023-04-01T16:45:30.097Z,2.17
2023-04-01T16:48:07.422Z,4.55
2023-04-01T16:51:00.676Z,2.87
2023-04-01T16:53:49.613Z,1.87
2023-04-01T16:56:31.516Z,5.72
2023-04-01T16:59:07.887Z,6.47
2023-04-01T17:01:44.769Z,3.65
2023-04-01T17:04:27.144Z,2.85
2023-04-01T17:07:03.670Z,2.67
2023-04-01T17:10:16.536Z,2.30
2023-04-01T17:13:02.143Z,2.95
2023-04-01T17:15:41.185Z,2.92
2023-04-01T17:18:26.533Z,2.20
2023-04-01T17:21:01.289Z,3.42
2023-04-01T17:23:45.105Z,2.53
2023-04-01T17:26:30.856Z,6.12
2023-04-01T17:29:16.186Z,6.55
2023-04-01T17:32:10.942Z,11.45
2023-04-01T17:35:02.428Z,12.18
2023-04-01T17:37:56.322Z,10.07
2023-04-01T17:40:30.928Z,9.63
2023-04-01T17:43:30.259Z,31.48
2023-04-01T17:46:02.410Z,44.17
2023-04-01T17:48:58.711Z,36.75
2023-04-01T17:51:57.812Z,36.42
2023-04-01T17:54:57.135Z,51.15
2023-04-01T17:57:46.054Z,40.95
2023-04-01T18:00:27.131Z,23.73
2023-04-01T18:03:31.535Z,22.75
2023-04-01T18:06:41.104Z,20.90
2023-04-01T18:09:36.954Z,19.37
2023-04-01T18:12:32.916Z,20.33
2023-04-01T18:17:45.208Z,24.83
2023-04-01T18:20:24.276Z,31.73
2023-04-01T18:23:09.817Z,36.78
2023-04-01T18:25:42.138Z,48.20
2023-04-01T18:28:39.939Z,52.40
2023-04-01T18:31:23.213Z,42.80
2023-04-01T18:33:50.662Z,40.30
2023-04-01T18:36:42.619Z,35.90
2023-04-01T18:39:17.216Z,28.60
2023-04-01T18:42:04.417Z,25.48
2023-04-01T18:44:47.163Z,30.55
2023-04-01T18:47:32.448Z,28.38
2023-04-01T18:50:21.551Z,31.70
2023-04-01T18:52:59.983Z,37.90
2023-04-01T18:55:30.029Z,38.70
2023-04-01T18:58:27.574Z,38.35
2023-04-01T19:01:40.775Z,37.60
2023-04-01T19:04:35.079Z,34.70
2023-04-01T19:07:23.502Z,45.83
2023-04-01T19:09:51.969Z,25.83
2023-04-01T19:12:35.877Z,37.58
2023-04-01T19:15:36.964Z,58.00
2023-04-01T19:18:27.500Z,45.95
2023-04-01T19:20:58.641Z,28.10
2023-04-01T19:23:44.122Z,25.15
2023-04-01T19:26:32.654Z,25.75
2023-04-01T19:29:28.685Z,31.77
2023-04-01T19:32:34.223Z,28.92
2023-04-01T19:35:18.959Z,32.78
2023-04-01T19:38:13.685Z,27.08
2023-04-01T19:41:07.912Z,26.95
2023-04-01T19:44:24.601Z,24.90
2023-04-01T19:46:56.093Z,23.25
2023-04-01T19:49:34.323Z,25.67
2023-04-01T19:52:05.084Z,22.90
2023-04-01T19:54:41.349Z,22.52
2023-04-01T19:57:18.283Z,19.87
2023-04-01T20:00:05.213Z,14.75
2023-04-01T20:02:38.210Z,17.70
2023-04-01T20:05:27.085Z,17.00
2023-04-01T20:08:01.396Z,14.98
2023-04-01T20:10:43.906Z,12.25
2023-04-01T20:13:23.023Z,10.98
2023-04-01T20:16:02.852Z,9.45
2023-04-01T20:21:26.196Z,9.38
2023-04-01T20:24:03.563Z,9.23
2023-04-01T20:26:35.575Z,8.18
2023-04-01T20:29:20.330Z,8.35
2023-04-01T20:32:14.790Z,8.48
2023-04-01T20:35:13.852Z,6.65
2023-04-01T20:37:58.335Z,6.65
2023-04-01T20:40:32.992Z,7.00
2023-04-01T20:43:14.811Z,7.15
2023-04-01T20:45:47.796Z,6.65
2023-04-01T20:48:28.499Z,7.82
2023-04-01T20:51:00.729Z,6.65
2023-04-01T20:53:38.477Z,8.50
2023-04-01T20:56:17.623Z,6.60
2023-04-01T20:59:02.836Z,7.07
2023-04-01T21:01:48.388Z,7.57
2023-04-01T21:04:34.207Z,7.30
2023-04-01T21:07:38.766Z,7.43
2023-04-01T21:10:20.032Z,8.48
2023-04-01T21:12:56.809Z,7.87
2023-04-01T21:16:01.645Z,12.13
2023-04-01T21:18:46.768Z,11.07
2023-04-01T21:22:01.416Z,9.13
2023-04-01T21:24:50.042Z,10.82
2023-04-01T21:27:25.934Z,8.20
2023-04-01T21:30:11.200Z,6.15
2023-04-01T21:32:37.990Z,6.20
2023-04-01T21:35:31.554Z,5.80
2023-04-01T21:38:15.339Z,6.12
2023-04-01T21:41:00.414Z,4.70
2023-04-01T21:43:58.327Z,6.20
2023-04-01T21:46:47.775Z,18.62
2023-04-01T21:49:25.908Z,13.27
2023-04-01T21:52:29.846Z,10.30
2023-04-01T21:55:21.341Z,9.18
2023-04-01T21:58:11.174Z,9.48
2023-04-01T22:03:32.380Z,7.62
2023-04-01T22:06:53.507Z,9.45
2023-04-01T22:09:42.531Z,6.85
2023-04-01T22:12:33.202Z,7.35
2023-04-01T22:15:21.778Z,6.87
2023-04-01T22:18:15.168Z,4.90
2023-04-01T22:21:06.405Z,11.30
2023-04-01T22:23:46.591Z,13.02
2023-04-01T22:26:44.508Z,10.07
2023-04-01T22:29:31.126Z,8.27
2023-04-01T22:32:20.916Z,8.55
2023-04-01T22:37:33.361Z,2.35
2023-04-01T22:40:24.643Z,2.45
2023-04-01T22:43:02.643Z,3.95
2023-04-01T22:45:51.036Z,3.58
2023-04-01T22:48:39.643Z,4.70
2023-04-01T22:54:07.836Z,4.97
2023-04-01T22:59:37.790Z,3.85
2023-04-01T23:02:26.944Z,4.47
2023-04-01T23:04:59.355Z,3.15
2023-04-01T23:07:47.723Z,3.20
2023-04-01T23:10:45.853Z,4.72
2023-04-01T23:13:22.201Z,4.30
2023-04-01T23:15:49.405Z,3.95
2023-04-01T23:18:37.483Z,4.65
2023-04-01T23:21:17.623Z,3.80
2023-04-01T23:23:51.412Z,4.90
2023-04-01T23:26:34.184Z,7.00
2023-04-01T23:29:01.710Z,5.22
2023-04-01T23:31:30.244Z,5.03
2023-04-01T23:34:07.016Z,6.47
2023-04-01T23:36:40.566Z,5.57
2023-04-01T23:39:25.217Z,8.85
2023-04-01T23:41:56.215Z,7.47
2023-04-01T23:44:26.850Z,8.40
2023-04-01T23:46:55.575Z,8.68
2023-04-01T23:49:26.805Z,6.60
2023-04-01T23:51:58.204Z,8.70
2023-04-01T23:55:16.487Z,7.55
2023-04-01T23:57:43.480Z,7.97
